createdAt,value
2022-08-03T00:04:43.360Z,0
2022-08-03T00:10:01.028Z,0
2022-08-03T00:20:38.325Z,0
2022-08-03T00:25:55.507Z,0
2022-08-03T00:31:13.831Z,0
2022-08-03T00:36:37.404Z,0
2022-08-03T00:41:54.725Z,0
2022-08-03T00:47:11.969Z,0
2022-08-03T00:52:29.174Z,0
2022-08-03T00:57:46.439Z,0
2022-08-03T01:03:03.594Z,0
2022-08-03T01:08:21.265Z,0
2022-08-03T01:14:00.270Z,0
2022-08-03T01:19:38.640Z,0
2022-08-03T01:24:56.004Z,0
2022-08-03T01:30:20.465Z,0
2022-08-03T01:35:38.503Z,0
2022-08-03T01:41:13.459Z,0
2022-08-03T01:46:30.710Z,0
2022-08-03T01:51:58.060Z,0
2022-08-03T01:57:21.557Z,0
2022-08-03T02:02:39.074Z,0
2022-08-03T02:08:00.234Z,0
2022-08-03T02:13:17.475Z,0
2022-08-03T02:18:34.716Z,0
2022-08-03T02:23:51.861Z,0
2022-08-03T02:29:38.907Z,0
2022-08-03T02:34:58.274Z,0
2022-08-03T02:40:15.354Z,0
2022-08-03T02:45:32.937Z,0
2022-08-03T02:50:50.182Z,0
2022-08-03T02:56:13.155Z,0
2022-08-03T03:01:30.644Z,0
2022-08-03T03:06:48.108Z,0
2022-08-03T03:12:09.310Z,0
2022-08-03T04:05:09.788Z,200.4
2022-08-03T04:15:43.246Z,387.9
2022-08-03T04:21:00.310Z,519.6
2022-08-03T04:26:20.426Z,658.7
2022-08-03T04:31:38.287Z,771.2
2022-08-03T04:36:55.165Z,910.4
2022-08-03T04:42:12.567Z,1054.6
2022-08-03T04:47:36.869Z,1109.2
2022-08-03T04:52:53.708Z,1386.7
2022-08-03T04:58:10.796Z,1489.2
2022-08-03T05:03:27.886Z,1810.8
2022-08-03T05:08:46.597Z,1907.1
2022-08-03T05:14:04.306Z,2023.3
2022-08-03T05:19:21.212Z,1975
2022-08-03T05:24:38.058Z,2042.1
2022-08-03T05:29:55.156Z,2124.6
2022-08-03T05:35:55.427Z,2215
2022-08-03T05:41:24.073Z,2225.8
2022-08-03T05:47:01.692Z,2460.8
2022-08-03T05:52:18.783Z,2629.2
2022-08-03T05:57:36.155Z,5733.8
2022-08-03T06:03:11.095Z,6373.8
2022-08-03T06:08:29.457Z,6675
2022-08-03T06:13:47.162Z,7529.2
2022-08-03T06:24:25.099Z,8765
2022-08-03T06:29:42.594Z,9784.6
2022-08-03T06:34:59.644Z,8591.7
2022-08-03T06:40:21.683Z,11645
2022-08-03T06:50:58.863Z,6325.4
2022-08-03T06:56:16.460Z,10468.8
2022-08-03T07:01:34.199Z,8737.5
2022-08-03T07:06:57.963Z,9806.2
2022-08-03T07:12:15.635Z,17835
2022-08-03T07:17:33.596Z,17541.7
2022-08-03T07:22:50.894Z,14012.9
2022-08-03T07:28:07.853Z,11189.6
2022-08-03T07:33:24.454Z,6355
2022-08-03T07:44:07.304Z,22034.6
2022-08-03T07:49:25.389Z,24693.3
2022-08-03T07:54:42.946Z,26756.7
2022-08-03T08:00:03.787Z,27795.8
2022-08-03T08:05:21.823Z,29525.8
2022-08-03T08:10:39.051Z,31023.3
2022-08-03T08:15:56.350Z,34360
2022-08-03T08:21:13.905Z,36095
2022-08-03T08:26:40.840Z,35893.3
2022-08-03T08:31:58.938Z,36286.7
2022-08-03T08:37:19.101Z,37986.7
2022-08-03T08:42:36.263Z,39937.5
2022-08-03T08:47:55.729Z,40950.8
2022-08-03T08:58:25.670Z,42474.2
2022-08-03T09:03:43.017Z,43854.2
2022-08-03T09:08:59.623Z,42258.3
2022-08-03T09:14:42.233Z,43495
2022-08-03T09:20:07.171Z,46087.5
2022-08-03T09:25:25.015Z,47976.7
2022-08-03T09:30:42.055Z,48448.3
2022-08-03T09:35:59.130Z,49849.2
2022-08-03T09:41:16.537Z,50357.4
2022-08-03T09:46:36.599Z,52542.4
2022-08-03T09:52:27.380Z,54042.8
2022-08-03T09:57:50.958Z,53744.5
2022-08-03T10:03:08.013Z,53800.2
2022-08-03T10:08:25.013Z,55363.5
2022-08-03T10:13:42.177Z,58827.9
2022-08-03T10:18:59.032Z,60400.2
2022-08-03T10:24:16.270Z,63057.7
2022-08-03T10:29:32.966Z,63943.6
2022-08-03T10:34:50.229Z,62569
2022-08-03T10:40:07.561Z,63993.9
2022-08-03T10:45:24.509Z,63740.5
2022-08-03T10:50:42.716Z,64554.5
2022-08-03T10:55:59.810Z,64804.3
2022-08-03T11:01:19.089Z,63526.7
2022-08-03T11:06:37.182Z,63100.9
2022-08-03T11:11:54.435Z,62170.1
2022-08-03T11:17:14.069Z,64673.1
2022-08-03T11:22:31.729Z,67487
2022-08-03T11:27:49.800Z,69948.8
2022-08-03T11:33:06.681Z,70365.6
2022-08-03T11:38:23.683Z,71860.6
2022-08-03T11:43:40.363Z,72074.5
2022-08-03T11:48:57.194Z,71068.2
2022-08-03T11:59:43.241Z,67388.2
2022-08-03T12:05:00.544Z,68425
2022-08-03T12:10:17.294Z,68027.9
2022-08-03T12:15:36.873Z,66178.9
2022-08-03T12:20:53.849Z,66160.9
2022-08-03T12:26:10.915Z,65438.6
2022-08-03T12:31:28.318Z,64937.3
2022-08-03T12:36:45.202Z,65323.6
2022-08-03T12:42:03.157Z,65199.6
2022-08-03T12:47:20.493Z,64692.9
2022-08-03T12:52:37.424Z,62400.1
2022-08-03T12:57:54.089Z,60089.3
2022-08-03T13:03:39.849Z,61108.1
2022-08-03T13:14:26.721Z,62932
2022-08-03T13:19:43.380Z,65523
2022-08-03T13:25:00.140Z,64872.6
2022-08-03T13:30:27.584Z,64527.6
2022-08-03T13:35:47.596Z,63138.6
2022-08-03T13:41:05.254Z,61805.3
2022-08-03T13:46:22.551Z,62414.5
2022-08-03T13:51:39.703Z,59505.3
2022-08-03T13:57:00.659Z,54889.1
2022-08-03T14:03:21.114Z,53534.3
2022-08-03T14:08:38.016Z,51202
2022-08-03T14:13:54.893Z,50255
2022-08-03T14:19:11.719Z,50238.8
2022-08-03T14:24:29.923Z,50486.8
2022-08-03T14:29:47.182Z,49971.7
2022-08-03T14:35:03.819Z,48832.5
2022-08-03T14:40:20.806Z,47304.2
2022-08-03T14:45:38.066Z,44801.7
2022-08-03T14:50:54.859Z,43040.8
2022-08-03T14:56:11.626Z,41281.7
2022-08-03T15:06:48.685Z,37867.5
2022-08-03T15:12:08.747Z,36118.3
2022-08-03T15:17:25.595Z,34909.2
2022-08-03T15:22:42.000Z,30370
2022-08-03T15:28:03.229Z,12609.2
2022-08-03T15:33:19.836Z,3639.6
2022-08-03T15:38:35.834Z,3684.2
2022-08-03T15:44:36.915Z,3641.3
2022-08-03T15:49:53.598Z,3532.5
2022-08-03T15:55:15.430Z,3426.7
2022-08-03T16:00:34.110Z,3324.6
2022-08-03T16:06:08.377Z,3220
2022-08-03T16:11:25.549Z,3115.4
2022-08-03T16:16:42.965Z,2986.7
2022-08-03T16:22:00.036Z,2906.7
2022-08-03T16:27:37.724Z,2827.9
2022-08-03T16:33:20.333Z,2652.5
2022-08-03T16:38:37.406Z,2774.2
2022-08-03T16:43:54.153Z,2806.7
2022-08-03T16:49:10.854Z,2623.3
2022-08-03T16:54:28.130Z,2521.7
2022-08-03T16:59:46.316Z,2565.4
2022-08-03T17:05:03.937Z,2497.9
2022-08-03T17:10:26.950Z,2494.6
2022-08-03T17:15:58.424Z,2361.7
2022-08-03T17:21:19.470Z,2244.6
2022-08-03T17:26:39.785Z,2192.1
2022-08-03T17:37:27.454Z,2056.3
2022-08-03T17:43:44.257Z,2007.5
2022-08-03T17:49:33.022Z,1880.8
2022-08-03T17:55:06.883Z,1807.5
2022-08-03T18:01:57.638Z,1724.6
2022-08-03T18:07:40.808Z,1628.3
2022-08-03T21:18:14.998Z,0
2022-08-03T21:23:37.099Z,0
2022-08-03T21:29:52.845Z,0
2022-08-03T21:35:10.558Z,0
2022-08-03T21:40:27.815Z,0
2022-08-03T21:45:45.022Z,0
2022-08-03T21:51:03.024Z,0
2022-08-03T21:56:19.898Z,0
2022-08-03T22:01:37.100Z,0
2022-08-03T22:07:01.485Z,0
2022-08-03T22:12:18.907Z,0
